Time;durP1;ratioP1;P1;durP2;ratioP2;P2;SDS_P1;SDS_P2;PMS_P1;PMS_P2;Temp;Humidity;BMP_temperature;BMP_pressure;BME280_temperature;BME280_humidity;BME280_pressure;Samples;Min_cycle;Max_cycle;Signal;HPM_P1;HPM_P2
2022/04/15 00:01:44;;;;;;;0.85;0.50;;;;;;;20.51;35.41;102381.25;16138259;19;130512;-48
2022/04/15 00:07:06;;;;;;;0.60;0.50;;;;;;;20.50;35.58;102392.56;16142822;19;130126;-50
2022/04/15 00:12:28;;;;;;;1.02;0.60;;;;;;;20.48;35.64;102383.63;16142349;19;129505;-48
2022/04/15 00:17:51;;;;;;;0.50;0.50;;;;;;;20.46;35.67;102383.81;16145124;19;129873;-49
2022/04/15 00:23:13;;;;;;;1.02;0.80;;;;;;;20.44;35.63;102389.63;16141117;19;130114;-45
2022/04/15 00:28:35;;;;;;;0.63;0.63;;;;;;;20.43;35.66;102385.13;16141014;19;129573;-51
2022/04/15 00:33:56;;;;;;;1.17;0.63;;;;;;;20.41;35.35;102384.50;16141849;19;128976;-48
2022/04/15 00:39:18;;;;;;;0.90;0.70;;;;;;;20.40;35.74;102384.72;16127353;19;129367;-49
2022/04/15 00:44:40;;;;;;;1.73;0.93;;;;;;;20.39;35.28;102383.88;16124071;19;129826;-49
2022/04/15 00:50:02;;;;;;;1.90;0.80;;;;;;;20.39;35.46;102397.75;16121574;19;129709;-44
2022/04/15 00:55:25;;;;;;;0.60;0.60;;;;;;;20.37;35.32;102401.84;16136300;19;129344;-48
2022/04/15 01:00:53;;;;;;;1.17;0.80;;;;;;;20.35;35.67;102399.31;16137197;19;129873;-46
2022/04/15 01:06:17;;;;;;;2.40;0.80;;;;;;;20.34;35.73;102396.72;16141474;19;129664;-44
2022/04/15 01:11:42;;;;;;;1.20;0.75;;;;;;;20.33;35.76;102400.56;16131683;19;130472;-47
2022/04/15 01:17:04;;;;;;;2.55;1.30;;;;;;;20.31;35.70;102405.53;16138024;19;129585;-46
2022/04/15 01:22:32;;;;;;;1.40;1.02;;;;;;;20.29;35.28;102406.59;16139538;19;131784;-45
2022/04/15 01:27:57;;;;;;;2.33;1.35;;;;;;;20.27;35.42;102405.09;16137855;19;129364;-51
2022/04/15 01:33:19;;;;;;;2.03;1.83;;;;;;;20.23;35.61;102396.34;16137613;19;131077;-49
2022/04/15 01:38:43;;;;;;;2.45;1.50;;;;;;;20.23;35.22;102401.06;16138989;19;128899;-50
2022/04/15 01:44:08;;;;;;;1.45;1.33;;;;;;;20.22;35.23;102397.44;16134300;19;129826;-49
2022/04/15 01:49:29;;;;;;;3.90;2.35;;;;;;;20.19;35.54;102411.75;16132070;19;129870;-46
2022/04/15 01:54:51;;;;;;;3.95;1.83;;;;;;;20.17;35.38;102416.72;16134421;19;130074;-49
2022/04/15 02:00:13;;;;;;;2.38;1.77;;;;;;;20.17;35.35;102422.25;16129679;19;129639;-43
2022/04/15 02:05:35;;;;;;;3.55;2.38;;;;;;;20.15;35.09;102424.41;16132853;19;129357;-50
2022/04/15 02:10:56;;;;;;;1.75;1.52;;;;;;;20.14;35.52;102429.09;16130625;19;129936;-52
2022/04/15 02:16:18;;;;;;;3.15;1.92;;;;;;;20.13;35.50;102437.66;16134465;19;129293;-48
2022/04/15 02:21:40;;;;;;;2.55;1.55;;;;;;;20.11;35.54;102435.13;16134434;19;128887;-49
2022/04/15 02:27:02;;;;;;;4.20;1.60;;;;;;;20.11;35.54;102450.91;16130297;19;129447;-49
2022/04/15 02:32:24;;;;;;;3.25;1.50;;;;;;;20.10;35.66;102443.66;16126797;19;129793;-51
2022/04/15 02:37:46;;;;;;;1.65;1.40;;;;;;;20.08;35.54;102449.44;16126908;19;130889;-49
2022/04/15 02:43:09;;;;;;;2.85;1.85;;;;;;;20.06;35.13;102448.81;16132653;19;129485;-51
2022/04/15 02:48:31;;;;;;;2.92;1.70;;;;;;;20.06;35.49;102451.56;16132147;19;130141;-45
2022/04/15 02:53:52;;;;;;;1.80;1.13;;;;;;;20.05;35.37;102443.47;16133107;19;129473;-47
2022/04/15 02:59:16;;;;;;;1.77;1.45;;;;;;;20.03;35.46;102442.84;16132517;19;130488;-49
2022/04/15 03:04:38;;;;;;;2.22;1.40;;;;;;;20.02;35.22;102443.91;16130870;19;129458;-46
2022/04/15 03:10:00;;;;;;;1.60;1.50;;;;;;;20.01;35.31;102444.97;16127787;19;129470;-52
2022/04/15 03:15:21;;;;;;;2.78;1.67;;;;;;;19.98;35.03;102447.09;16128225;19;128957;-50
2022/04/15 03:20:43;;;;;;;1.65;1.17;;;;;;;19.97;34.99;102442.59;16129817;19;129918;-44
2022/04/15 03:26:05;;;;;;;3.28;1.95;;;;;;;19.96;35.35;102456.72;16128845;19;130211;-47
2022/04/15 03:31:27;;;;;;;1.67;1.52;;;;;;;19.94;35.45;102454.13;16126697;19;131557;-50
2022/04/15 03:36:48;;;;;;;1.70;1.60;;;;;;;19.93;35.39;102455.22;16135751;19;129087;-49
2022/04/15 03:42:10;;;;;;;2.35;1.63;;;;;;;19.91;34.98;102468.47;16145498;19;130482;-48
2022/04/15 03:47:32;;;;;;;2.88;2.28;;;;;;;19.90;35.07;102471.44;16145761;19;129735;-47
2022/04/15 03:52:54;;;;;;;2.38;2.17;;;;;;;19.88;35.06;102471.69;16139458;19;129323;-49
2022/04/15 03:58:16;;;;;;;2.60;2.10;;;;;;;19.87;34.99;102481.09;16142506;19;129673;-49
2022/04/15 04:03:38;;;;;;;2.17;1.98;;;;;;;19.86;35.37;102476.59;16144594;19;129990;-49
2022/04/15 04:09:00;;;;;;;3.35;2.40;;;;;;;19.85;34.82;102469.34;16144171;19;129428;-49
2022/04/15 04:14:21;;;;;;;2.70;2.45;;;;;;;19.84;35.22;102473.19;16138628;19;129807;-48
2022/04/15 04:19:43;;;;;;;2.60;2.40;;;;;;;19.83;35.06;102477.91;16143163;19;129788;-53
2022/04/15 04:25:10;;;;;;;2.78;2.20;;;;;;;19.81;35.07;102480.03;16143161;19;129650;-51
2022/04/15 04:30:32;;;;;;;2.65;2.05;;;;;;;19.81;35.20;102484.75;16139094;19;129357;-47
2022/04/15 04:35:53;;;;;;;2.58;2.10;;;;;;;19.79;35.00;102497.97;16136307;19;129118;-47
2022/04/15 04:41:15;;;;;;;4.72;2.35;;;;;;;19.79;35.27;102493.28;16139502;19;129692;-51
2022/04/15 04:46:38;;;;;;;2.58;1.90;;;;;;;19.76;34.91;102499.25;16139538;19;130225;-47
2022/04/15 04:52:00;;;;;;;2.10;1.80;;;;;;;19.76;35.27;102498.41;16136404;19;129769;-45
2022/04/15 04:57:21;;;;;;;3.40;2.17;;;;;;;19.74;35.25;102503.31;16141127;19;129520;-51
2022/04/15 05:02:47;;;;;;;3.30;1.55;;;;;;;19.73;35.20;102510.81;16139120;19;129326;-53
2022/04/15 05:08:09;;;;;;;2.75;1.88;;;;;;;19.73;34.75;102515.50;16140018;19;130286;-45
2022/04/15 05:13:30;;;;;;;1.70;1.55;;;;;;;19.76;34.99;102528.97;16132826;19;129963;-51
2022/04/15 05:18:52;;;;;;;3.55;1.45;;;;;;;19.84;35.34;102528.72;16138621;19;129417;-47
2022/04/15 05:24:14;;;;;;;3.47;1.40;;;;;;;19.96;35.21;102540.03;16139418;19;129271;-47
2022/04/15 05:29:35;;;;;;;2.20;1.58;;;;;;;20.12;34.60;102547.09;16136404;19;129187;-46
2022/04/15 05:34:57;;;;;;;3.00;1.75;;;;;;;20.38;34.58;102556.44;16138171;19;129530;-49
2022/04/15 05:40:19;;;;;;;4.35;2.58;;;;;;;20.63;34.51;102561.25;16135222;19;130739;-43
2022/04/15 05:45:41;;;;;;;2.28;1.70;;;;;;;20.82;34.00;102573.41;16132934;19;130042;-45
2022/04/15 05:51:03;;;;;;;3.10;1.98;;;;;;;20.97;33.91;102567.53;16132646;19;129561;-43
2022/04/15 05:56:24;;;;;;;2.25;1.75;;;;;;;21.09;34.02;102574.13;16136236;19;129461;-47
2022/04/15 06:01:48;;;;;;;3.78;2.30;;;;;;;21.12;33.64;102573.66;16129577;19;129552;-44
2022/04/15 06:07:09;;;;;;;4.60;2.30;;;;;;;21.09;33.68;102582.47;16133129;19;129364;-54
2022/04/15 06:12:54;;;;;;;4.45;2.50;;;;;;;21.07;33.77;102584.59;16130959;19;130148;-48
2022/04/15 06:18:14;;;;;;;4.25;2.50;;;;;;;21.06;33.87;102596.81;16136107;19;129518;-46
2022/04/15 06:23:36;;;;;;;4.43;2.47;;;;;;;21.01;33.39;102605.00;16134211;19;129734;-45
2022/04/15 06:28:58;;;;;;;3.65;1.92;;;;;;;21.01;33.85;102602.22;16131467;19;129588;-45
2022/04/15 06:34:21;;;;;;;2.67;1.85;;;;;;;21.01;33.67;102603.03;16134285;19;128928;-47
2022/04/15 06:39:45;;;;;;;3.35;1.63;;;;;;;21.03;33.95;102609.25;16130082;19;129637;-48
2022/04/15 06:45:09;;;;;;;3.30;1.70;;;;;;;21.09;33.42;102621.41;16126167;19;129852;-44
2022/04/15 06:50:31;;;;;;;6.15;2.35;;;;;;;21.16;33.39;102625.03;16125973;19;129830;-48
2022/04/15 06:55:55;;;;;;;2.20;1.73;;;;;;;21.29;33.40;102626.03;16126282;19;129466;-46
2022/04/15 07:01:17;;;;;;;6.75;2.13;;;;;;;21.41;33.77;102620.59;16126848;19;131138;-50
2022/04/15 07:06:39;;;;;;;3.45;2.25;;;;;;;21.59;33.29;102628.22;16120077;19;129911;-45
2022/04/15 07:12:01;;;;;;;5.10;2.33;;;;;;;21.68;33.40;102626.84;16115248;19;131974;-47
2022/04/15 07:17:22;;;;;;;5.15;2.53;;;;;;;21.74;33.08;102637.09;16127536;19;129282;-47
2022/04/15 07:22:44;;;;;;;3.40;2.17;;;;;;;21.76;32.88;102634.09;16126827;19;130302;-47
2022/04/15 07:28:11;;;;;;;5.00;2.50;;;;;;;21.76;33.31;102640.53;16123927;19;130100;-44
2022/04/15 07:33:33;;;;;;;5.88;2.60;;;;;;;21.78;33.35;102643.06;16115373;19;130567;-47
2022/04/15 07:38:54;;;;;;;7.18;2.97;;;;;;;21.81;33.02;102649.03;16129798;19;129480;-48
2022/04/15 07:44:17;;;;;;;13.27;3.25;;;;;;;21.86;33.09;102644.72;16138855;19;129997;-47
2022/04/15 07:49:39;;;;;;;3.67;2.80;;;;;;;21.89;33.23;102655.44;16134211;19;129536;-43
2022/04/15 07:55:00;;;;;;;6.05;2.60;;;;;;;21.90;33.26;102657.13;16142592;19;129008;-47
2022/04/15 08:00:22;;;;;;;4.75;2.50;;;;;;;21.88;33.08;102664.88;16140337;19;130966;-47
2022/04/15 08:05:44;;;;;;;5.35;2.70;;;;;;;21.81;33.03;102671.31;16138028;19;129460;-46
2022/04/15 08:11:06;;;;;;;4.35;2.65;;;;;;;21.78;33.14;102680.16;16141967;19;130474;-47
2022/04/15 08:16:28;;;;;;;4.35;2.15;;;;;;;21.73;33.04;102684.66;16143723;19;131869;-45
2022/04/15 08:21:51;;;;;;;4.60;2.20;;;;;;;21.66;33.20;102690.31;16139871;19;129752;-50
2022/04/15 08:27:12;;;;;;;3.72;2.50;;;;;;;21.57;33.33;102698.06;16129770;19;129386;-51
2022/04/15 08:32:34;;;;;;;7.07;2.00;;;;;;;21.48;33.54;102705.78;16128181;19;130027;-48
2022/04/15 08:38:01;;;;;;;4.50;2.03;;;;;;;21.41;33.49;102707.78;16133804;19;130642;-50
2022/04/15 08:43:29;;;;;;;2.85;1.77;;;;;;;21.34;33.83;102720.84;16140496;19;129239;-49
2022/04/15 08:48:52;;;;;;;4.35;2.22;;;;;;;21.28;33.74;102722.59;16139215;19;128894;-45
2022/04/15 08:54:14;;;;;;;3.65;1.80;;;;;;;21.29;34.00;102723.47;16134596;19;129576;-49
2022/04/15 08:59:40;;;;;;;3.22;1.90;;;;;;;21.33;33.46;102725.59;16139951;19;130091;-46
2022/04/15 09:05:03;;;;;;;2.15;1.77;;;;;;;21.40;33.33;102731.13;16132711;19;129012;-46
2022/04/15 09:10:25;;;;;;;3.00;1.75;;;;;;;21.45;33.76;102722.94;16136468;19;129929;-47
2022/04/15 09:15:48;;;;;;;2.20;1.50;;;;;;;21.51;33.63;102732.38;16137803;19;129379;-50
2022/04/15 09:21:24;;;;;;;3.17;1.45;;;;;;;21.59;33.05;102734.03;16137172;19;129275;-48
2022/04/15 09:26:48;;;;;;;;;;;;;;;21.55;33.51;102743.91;16133437;19;129621;-45
2022/04/15 09:32:14;;;;;;;1.88;1.50;;;;;;;21.62;33.19;102739.19;16133113;19;130335;-50
2022/04/15 09:37:42;;;;;;;2.63;1.48;;;;;;;21.63;33.24;102752.03;16135935;19;130190;-46
2022/04/15 09:43:06;;;;;;;2.47;1.38;;;;;;;21.63;33.43;102752.88;16132315;19;129473;-48
2022/04/15 09:48:28;;;;;;;2.55;1.52;;;;;;;21.64;33.34;102754.59;16131786;19;129595;-48
2022/04/15 09:53:55;;;;;;;2.25;1.27;;;;;;;21.67;33.25;102756.06;16127903;19;129623;-45
2022/04/15 09:59:21;;;;;;;2.72;1.65;;;;;;;21.71;33.06;102753.72;16130871;19;130174;-46
2022/04/15 10:04:43;;;;;;;2.28;1.48;;;;;;;21.72;32.78;102749.84;16128231;19;130167;-50
2022/04/15 10:10:05;;;;;;;3.03;1.90;;;;;;;21.75;33.09;102741.88;16132164;19;129925;-48
2022/04/15 10:15:30;;;;;;;3.67;2.20;;;;;;;21.73;32.81;102752.41;16133833;19;129773;-48
2022/04/15 10:20:52;;;;;;;4.17;2.70;;;;;;;21.71;32.80;102754.53;16130438;19;130610;-46
2022/04/15 10:26:17;;;;;;;6.65;2.78;;;;;;;21.72;33.24;102745.13;16127706;19;129340;-52
2022/04/15 10:31:43;;;;;;;;;;;;;;;21.74;33.06;102754.09;16132340;19;129852;-49
2022/04/15 10:37:05;;;;;;;5.63;2.30;;;;;;;21.81;33.38;102749.34;16132626;19;129174;-49
2022/04/15 10:42:31;;;;;;;4.60;2.45;;;;;;;21.85;33.26;102748.91;16133969;19;129397;-45
2022/04/15 10:47:58;;;;;;;4.95;2.60;;;;;;;21.88;33.37;102748.44;16144938;19;129706;-47
2022/04/15 10:53:20;;;;;;;5.22;2.33;;;;;;;21.92;33.27;102746.91;16144548;19;129101;-44
2022/04/15 11:04:50;;;;;;;4.18;2.05;;;;;;;22.02;33.11;102749.22;16137301;19;131177;-48
2022/04/15 11:10:17;;;;;;;4.88;2.15;;;;;;;22.07;33.01;102752.19;16143683;19;130399;-44
2022/04/15 11:16:06;;;;;;;3.58;2.00;;;;;;;22.08;32.92;102751.94;16145462;19;129597;-49
2022/04/15 11:21:35;;;;;;;7.32;2.83;;;;;;;22.08;32.91;102749.16;16146137;19;129704;-47
2022/04/15 11:26:58;;;;;;;7.97;2.90;;;;;;;22.10;33.28;102751.72;16145354;19;130594;-45
2022/04/15 11:32:20;;;;;;;5.70;2.67;;;;;;;22.16;32.97;102748.03;16141575;19;129419;-46
2022/04/15 11:37:43;;;;;;;4.47;2.30;;;;;;;22.24;33.17;102746.94;16144618;19;129560;-46
2022/04/15 11:43:06;;;;;;;4.43;2.20;;;;;;;22.30;32.74;102737.66;16139482;19;129028;-45
2022/04/15 11:48:29;;;;;;;6.15;2.10;;;;;;;22.38;32.64;102742.97;16145337;19;128969;-47
2022/04/15 11:53:51;;;;;;;6.05;2.60;;;;;;;22.43;32.64;102740.31;16140958;19;129803;-48
2022/04/15 11:59:13;;;;;;;7.07;2.20;;;;;;;22.46;32.77;102732.59;16141395;19;130462;-50
2022/04/15 12:04:35;;;;;;;4.40;2.10;;;;;;;22.47;32.77;102728.72;16135093;19;130808;-46
2022/04/15 12:09:56;;;;;;;3.88;2.10;;;;;;;22.47;32.56;102720.34;16141262;19;129481;-46
2022/04/15 12:15:25;;;;;;;2.97;1.60;;;;;;;22.51;32.40;102724.41;16136906;19;129728;-48
2022/04/15 12:20:46;;;;;;;2.28;1.55;;;;;;;22.51;32.38;102725.22;16140227;19;129042;-49
2022/04/15 12:26:13;;;;;;;3.67;1.70;;;;;;;22.47;32.49;102718.41;16141384;19;129968;-49
2022/04/15 12:31:35;;;;;;;2.28;1.65;;;;;;;22.39;32.91;102716.78;16139049;19;129471;-50
2022/04/15 12:36:57;;;;;;;2.88;1.50;;;;;;;22.30;32.74;102720.91;16142515;19;129802;-48
2022/04/15 12:42:29;;;;;;;1.52;1.40;;;;;;;22.20;32.71;102717.75;16142288;19;130106;-46
2022/04/15 12:47:57;;;;;;;1.80;1.38;;;;;;;22.10;32.92;102712.69;16141246;19;129209;-47
2022/04/15 12:53:21;;;;;;;2.03;1.45;;;;;;;22.00;33.29;102721.56;16136893;19;129793;-45
2022/04/15 12:58:53;;;;;;;1.73;1.10;;;;;;;21.93;33.52;102723.53;16134139;19;129792;-45
2022/04/15 13:04:18;;;;;;;2.80;1.20;;;;;;;21.83;33.37;102713.75;16138354;19;131355;-45
2022/04/15 13:09:40;;;;;;;2.35;1.10;;;;;;;21.77;33.42;102711.00;16135159;19;129340;-47
2022/04/15 13:15:02;;;;;;;2.60;1.30;;;;;;;21.70;33.45;102702.69;16134977;19;129052;-44
2022/04/15 13:20:24;;;;;;;2.53;1.33;;;;;;;21.64;33.45;102695.25;16137765;19;129485;-44
2022/04/15 13:25:46;;;;;;;1.42;1.20;;;;;;;21.57;33.35;102686.94;16137624;19;129060;-46
2022/04/15 13:31:11;;;;;;;2.45;1.27;;;;;;;21.52;33.65;102689.53;16136751;19;128913;-50
2022/04/15 13:36:34;;;;;;;2.97;1.60;;;;;;;21.45;33.74;102683.13;16137596;19;129784;-46
2022/04/15 13:41:58;;;;;;;1.63;1.30;;;;;;;21.41;33.70;102677.16;16138833;19;129070;-44
2022/04/15 13:47:20;;;;;;;2.05;1.23;;;;;;;21.37;33.67;102678.66;16135938;19;129387;-48
2022/04/15 13:58:22;;;;;;;1.52;1.20;;;;;;;21.29;33.48;102673.38;16135952;19;128999;-45
2022/04/15 14:03:44;;;;;;;1.20;1.10;;;;;;;21.26;34.18;102682.16;16131849;19;129620;-44
2022/04/15 14:09:08;;;;;;;1.30;0.90;;;;;;;21.22;34.19;102674.22;16134631;19;128906;-45
2022/04/15 14:14:30;;;;;;;2.13;1.13;;;;;;;21.19;33.99;102666.31;16130301;19;129480;-49
2022/04/15 14:19:51;;;;;;;3.20;1.60;;;;;;;21.16;33.92;102664.00;16128204;19;129194;-47
2022/04/15 14:25:13;;;;;;;2.10;1.38;;;;;;;21.13;33.73;102653.31;16134662;19;129136;-45
2022/04/15 14:30:35;;;;;;;5.65;1.40;;;;;;;21.11;34.09;102654.63;16129606;19;131688;-45
2022/04/15 14:36:03;;;;;;;3.17;1.20;;;;;;;21.10;33.96;102648.19;16126904;19;129286;-46
2022/04/15 14:41:25;;;;;;;2.03;1.38;;;;;;;21.08;34.10;102647.53;16130370;19;129829;-46
2022/04/15 14:46:47;;;;;;;1.95;0.95;;;;;;;21.04;33.84;102649.91;16131984;19;129246;-48
2022/04/15 14:52:09;;;;;;;1.58;0.80;;;;;;;21.04;33.97;102643.50;16128509;19;129445;-46
2022/04/15 14:57:31;;;;;;;1.75;1.00;;;;;;;21.00;34.15;102637.50;16125989;19;129090;-45
2022/04/15 15:02:53;;;;;;;1.85;0.95;;;;;;;20.98;33.80;102649.94;16129460;19;129340;-48
2022/04/15 15:08:15;;;;;;;1.60;1.13;;;;;;;20.95;34.11;102644.81;16130941;19;129522;-46
2022/04/15 15:13:38;;;;;;;3.63;1.35;;;;;;;20.93;34.00;102649.72;16126557;19;129315;-48
2022/04/15 15:19:04;;;;;;;1.95;1.10;;;;;;;20.89;34.15;102654.88;16130082;19;129153;-49
2022/04/15 15:30:09;;;;;;;1.13;1.02;;;;;;;20.83;34.02;102651.06;16129897;19;130682;-44
2022/04/15 15:35:31;;;;;;;2.28;0.85;;;;;;;20.81;33.85;102650.41;16142074;19;130302;-51
2022/04/15 15:40:55;;;;;;;2.20;1.30;;;;;;;20.79;33.79;102643.38;16143091;19;129291;-44
2022/04/15 15:46:19;;;;;;;2.05;1.10;;;;;;;20.77;33.72;102645.53;16144496;19;129264;-47
2022/04/15 15:51:42;;;;;;;2.23;1.20;;;;;;;20.73;33.92;102643.16;16141959;19;129001;-44
2022/04/15 15:57:04;;;;;;;2.78;1.30;;;;;;;20.70;34.00;102634.38;16142973;19;130132;-49
2022/04/15 16:02:27;;;;;;;2.15;1.17;;;;;;;20.67;33.74;102655.16;16136583;19;130889;-47
2022/04/15 16:07:49;;;;;;;3.00;1.33;;;;;;;20.67;34.33;102649.59;16141134;19;132325;-45
2022/04/15 16:13:11;;;;;;;4.43;1.50;;;;;;;20.69;34.46;102641.00;16136424;19;130577;-44
2022/04/15 16:18:33;;;;;;;3.70;1.33;;;;;;;20.69;34.71;102636.31;16140031;19;129405;-47
2022/04/15 16:23:54;;;;;;;3.63;1.67;;;;;;;20.67;34.28;102643.19;16141930;19;130008;-47
2022/04/15 16:29:16;;;;;;;2.80;1.52;;;;;;;20.65;34.49;102643.38;16139696;19;129788;-48
2022/04/15 16:34:38;;;;;;;11.02;1.80;;;;;;;20.65;34.16;102648.09;16131893;19;129837;-43
2022/04/15 16:40:00;;;;;;;9.05;1.65;;;;;;;20.68;34.36;102654.09;16133479;19;129515;-49
2022/04/15 16:45:22;;;;;;;8.77;1.80;;;;;;;20.73;34.51;102653.41;16137893;19;131918;-44
2022/04/15 16:50:45;;;;;;;9.25;1.45;;;;;;;20.75;34.50;102651.28;16139516;19;130291;-44
2022/04/15 17:01:47;;;;;;;9.70;1.10;;;;;;;20.74;34.57;102667.09;16138740;19;129270;-46
2022/04/15 17:07:09;;;;;;;4.22;1.02;;;;;;;20.75;34.26;102665.19;16133397;19;129700;-44
2022/04/15 17:12:31;;;;;;;12.88;1.00;;;;;;;20.75;34.26;102668.84;16135441;19;130078;-48
2022/04/15 17:17:53;;;;;;;8.07;1.35;;;;;;;20.75;34.65;102677.19;16136214;19;129884;-44
2022/04/15 17:23:15;;;;;;;10.02;1.40;;;;;;;20.75;34.61;102665.19;16137254;19;130244;-49
2022/04/15 17:28:38;;;;;;;11.93;1.48;;;;;;;20.74;34.41;102672.66;16136920;19;128864;-48
2022/04/15 17:34:00;;;;;;;17.15;2.03;;;;;;;20.72;34.78;102677.63;16130667;19;129615;-48
2022/04/15 17:39:21;;;;;;;18.65;4.50;;;;;;;20.71;34.65;102673.13;16137870;19;129725;-44
2022/04/15 17:44:43;;;;;;;16.27;3.00;;;;;;;20.70;34.35;102681.66;16138358;19;129051;-45
2022/04/15 17:50:05;;;;;;;14.65;2.60;;;;;;;20.68;34.65;102681.03;16135762;19;129626;-44
2022/04/15 17:55:27;;;;;;;11.52;2.85;;;;;;;20.65;34.44;102690.66;16128788;19;129506;-44
2022/04/15 18:00:52;;;;;;;9.43;2.75;;;;;;;20.63;34.68;102695.56;16133081;19;129894;-48
2022/04/15 18:06:14;;;;;;;8.37;2.33;;;;;;;20.59;34.83;102700.72;16129260;19;130254;-45
2022/04/15 18:11:36;;;;;;;7.90;2.60;;;;;;;20.58;34.57;102707.34;16129300;19;129550;-47
2022/04/15 18:16:57;;;;;;;9.80;2.13;;;;;;;20.64;34.80;102716.75;16129441;19;129631;-49
2022/04/15 18:22:22;;;;;;;6.70;1.90;;;;;;;20.76;34.76;102725.34;16128724;19;130287;-44
2022/04/15 18:27:44;;;;;;;8.63;1.98;;;;;;;20.96;34.42;102724.41;16131503;19;129599;-47
2022/04/15 18:33:08;;;;;;;6.43;1.83;;;;;;;21.18;34.92;102745.31;16131454;19;129030;-49
2022/04/15 18:38:31;;;;;;;8.53;1.87;;;;;;;21.37;34.41;102748.25;16132328;19;131049;-46
2022/04/15 18:43:54;;;;;;;4.65;1.80;;;;;;;21.51;34.42;102763.00;16130083;19;132414;-45
2022/04/15 18:54:56;;;;;;;10.20;1.92;;;;;;;21.55;33.64;102767.06;16127019;19;129096;-46
2022/04/15 19:00:18;;;;;;;8.85;1.95;;;;;;;21.50;33.78;102784.44;16130526;19;130025;-44
2022/04/15 19:05:39;;;;;;;12.15;1.73;;;;;;;21.45;34.07;102783.34;16130125;19;129629;-49
2022/04/15 19:11:02;;;;;;;12.10;2.25;;;;;;;21.40;33.98;102780.38;16145521;19;129345;-48
2022/04/15 19:16:23;;;;;;;10.52;1.85;;;;;;;21.36;34.06;102797.50;16134907;19;129910;-45
2022/04/15 19:21:45;;;;;;;6.45;1.85;;;;;;;21.27;33.90;102801.63;16145784;19;129990;-45
2022/04/15 19:27:07;;;;;;;10.95;1.60;;;;;;;21.18;33.91;102809.34;16143529;19;129570;-46
2022/04/15 19:32:29;;;;;;;5.93;1.60;;;;;;;21.13;34.18;102808.28;16139269;19;130294;-48
2022/04/15 19:37:51;;;;;;;13.68;1.95;;;;;;;21.08;34.51;102822.84;16129929;19;130410;-49
2022/04/15 19:43:13;;;;;;;6.45;1.48;;;;;;;21.07;34.23;102826.72;16127059;19;129422;-50
2022/04/15 19:48:35;;;;;;;7.30;1.35;;;;;;;21.05;34.38;102839.97;16133426;19;130703;-49
2022/04/15 19:53:57;;;;;;;8.32;1.60;;;;;;;21.03;34.98;102840.19;16141598;19;128855;-52
2022/04/15 20:05:00;;;;;;;5.70;1.30;;;;;;;21.31;34.74;102853.00;16124411;19;129725;-51
2022/04/15 20:10:24;;;;;;;9.95;1.13;;;;;;;21.59;34.34;102851.00;16125897;19;130655;-51
2022/04/15 20:15:47;;;;;;;9.30;1.40;;;;;;;21.85;34.48;102860.34;16137800;19;129984;-51
2022/04/15 20:21:09;;;;;;;9.75;1.65;;;;;;;22.05;33.48;102863.03;16132103;19;129889;-53
2022/04/15 20:26:31;;;;;;;5.95;1.45;;;;;;;22.21;33.21;102858.91;16131365;19;130408;-50
2022/04/15 20:31:53;;;;;;;7.82;1.52;;;;;;;22.37;33.03;102866.72;16141129;19;129344;-52
2022/04/15 20:37:16;;;;;;;4.70;1.10;;;;;;;22.46;32.90;102872.03;16135129;19;129959;-48
2022/04/15 20:42:38;;;;;;;8.13;1.23;;;;;;;22.49;33.27;102874.38;16137471;19;129634;-47
2022/04/15 20:47:59;;;;;;;4.68;1.10;;;;;;;22.47;33.03;102873.75;16138396;19;129947;-49
2022/04/15 20:53:21;;;;;;;3.78;0.80;;;;;;;22.41;32.94;102870.75;16135750;19;129974;-47
2022/04/15 20:58:43;;;;;;;2.72;1.13;;;;;;;22.31;33.15;102864.81;16137358;19;130456;-47
2022/04/15 21:04:05;;;;;;;7.03;1.08;;;;;;;22.21;33.80;102858.91;16134924;19;129455;-52
2022/04/15 21:09:27;;;;;;;4.43;0.80;;;;;;;22.12;33.51;102867.50;16138508;19;129558;-48
2022/04/15 21:14:50;;;;;;;7.75;1.10;;;;;;;22.03;33.79;102863.25;16130424;19;130014;-54
2022/04/15 21:20:12;;;;;;;7.50;1.48;;;;;;;21.97;33.34;102864.16;16136844;19;129458;-49
2022/04/15 21:25:34;;;;;;;2.72;1.20;;;;;;;21.88;33.37;102862.69;16133910;19;129584;-50
2022/04/15 21:30:56;;;;;;;5.78;1.33;;;;;;;21.76;33.56;102852.25;16132373;19;129328;-50
2022/04/15 21:36:18;;;;;;;6.35;1.35;;;;;;;21.69;33.16;102854.19;16132625;19;129531;-50
2022/04/15 21:41:41;;;;;;;5.32;1.38;;;;;;;21.61;33.35;102860.84;16134187;19;130458;-47
2022/04/15 21:47:04;;;;;;;3.85;1.63;;;;;;;21.51;33.40;102854.91;16134079;19;129422;-52
2022/04/15 21:52:33;;;;;;;5.60;1.23;;;;;;;21.42;33.26;102851.47;16135178;19;129908;-48
2022/04/15 21:57:55;;;;;;;7.57;1.42;;;;;;;21.37;33.79;102851.28;16128108;19;130590;-45
2022/04/15 22:03:18;;;;;;;2.83;1.30;;;;;;;21.30;33.76;102853.19;16130049;19;129810;-47
2022/04/15 22:08:41;;;;;;;2.90;1.10;;;;;;;21.21;33.80;102860.94;16133089;19;129352;-47
2022/04/15 22:14:03;;;;;;;4.05;1.45;;;;;;;21.14;33.43;102854.53;16127639;19;130134;-49
2022/04/15 22:19:25;;;;;;;1.08;0.98;;;;;;;21.06;33.77;102866.72;16130893;19;130068;-46
2022/04/15 22:24:48;;;;;;;4.63;1.20;;;;;;;20.98;33.68;102862.28;16133569;19;129591;-47
2022/04/15 22:30:10;;;;;;;3.00;1.30;;;;;;;20.90;33.73;102868.91;16132275;19;130427;-48
2022/04/15 22:35:32;;;;;;;1.52;1.02;;;;;;;20.85;34.17;102871.47;16127608;19;130150;-48
2022/04/15 22:40:53;;;;;;;1.60;1.10;;;;;;;20.80;33.95;102871.25;16134296;19;129753;-48
2022/04/15 22:46:15;;;;;;;3.17;1.05;;;;;;;20.74;33.91;102866.50;16144051;19;129469;-49
2022/04/15 22:51:38;;;;;;;2.42;1.10;;;;;;;20.69;33.93;102869.94;16149529;19;131793;-47
2022/04/15 22:57:09;;;;;;;2.35;1.10;;;;;;;20.65;34.10;102867.81;16146604;19;129542;-47
2022/04/15 23:02:31;;;;;;;2.53;1.20;;;;;;;20.60;33.87;102883.19;16148431;19;129226;-48
2022/04/15 23:07:56;;;;;;;1.27;1.10;;;;;;;20.55;34.14;102880.22;16140558;19;129737;-49
2022/04/15 23:13:17;;;;;;;1.87;1.10;;;;;;;20.51;33.94;102884.47;16141857;19;129260;-52
2022/04/15 23:18:40;;;;;;;1.13;0.93;;;;;;;20.49;34.10;102875.47;16146289;19;129532;-45
2022/04/15 23:24:02;;;;;;;2.42;1.30;;;;;;;20.45;33.86;102885.31;16142832;19;129467;-46
2022/04/15 23:29:24;;;;;;;3.47;1.40;;;;;;;20.40;34.35;102866.47;16144734;19;129315;-46
2022/04/15 23:34:46;;;;;;;2.38;1.00;;;;;;;20.36;34.28;102869.88;16143471;19;130128;-48
2022/04/15 23:40:08;;;;;;;1.88;1.17;;;;;;;20.33;34.23;102884.19;16145494;19;129095;-46
2022/04/15 23:45:30;;;;;;;1.75;0.90;;;;;;;20.29;34.19;102893.00;16145529;19;129314;-49
2022/04/15 23:50:52;;;;;;;2.17;1.20;;;;;;;20.27;34.29;102897.91;16142470;19;129721;-45
2022/04/15 23:56:14;;;;;;;1.60;1.00;;;;;;;20.26;33.95;102898.09;16140704;19;131588;-49
